createdAt,value
2023-04-18T00:01:25.057Z,9.26
2023-04-18T00:03:53.342Z,9.27
2023-04-18T00:06:22.291Z,9.26
2023-04-18T00:08:50.029Z,9.24
2023-04-18T00:11:17.679Z,9.25
2023-04-18T00:13:47.586Z,9.25
2023-04-18T00:16:15.600Z,9.25
2023-04-18T00:18:43.377Z,9.23
2023-04-18T00:21:11.151Z,9.23
2023-04-18T00:23:39.865Z,9.25
2023-04-18T00:26:07.461Z,9.27
2023-04-18T00:28:35.131Z,9.25
2023-04-18T00:31:02.890Z,9.23
2023-04-18T00:33:30.653Z,9.21
2023-04-18T00:35:58.257Z,9.20
2023-04-18T00:38:25.850Z,9.21
2023-04-18T00:40:53.444Z,9.19
2023-04-18T00:43:23.426Z,9.17
2023-04-18T00:45:51.047Z,9.16
2023-04-18T00:48:18.675Z,9.18
2023-04-18T00:50:46.332Z,9.20
2023-04-18T00:53:13.915Z,9.19
2023-04-18T00:55:41.592Z,9.19
2023-04-18T00:58:09.242Z,9.17
2023-04-18T01:00:36.896Z,9.17
2023-04-18T01:03:04.648Z,9.19
2023-04-18T01:05:32.428Z,9.20
2023-04-18T01:08:01.335Z,9.19
2023-04-18T01:10:29.249Z,9.17
2023-04-18T01:13:23.189Z,9.17
2023-04-18T01:15:54.075Z,9.19
2023-04-18T01:18:22.578Z,9.20
2023-04-18T01:20:51.107Z,9.17
2023-04-18T01:23:19.219Z,9.15
2023-04-18T01:25:47.284Z,9.16
2023-04-18T01:28:15.069Z,9.19
2023-04-18T01:30:42.706Z,9.19
2023-04-18T01:33:10.320Z,9.17
2023-04-18T01:35:38.108Z,9.14
2023-04-18T01:38:05.776Z,9.14
2023-04-18T01:40:33.404Z,9.14
2023-04-18T01:43:01.297Z,9.13
2023-04-18T01:45:28.893Z,9.12
2023-04-18T01:47:56.634Z,9.13
2023-04-18T01:50:24.442Z,9.14
2023-04-18T01:52:52.030Z,9.15
2023-04-18T01:55:19.698Z,9.13
2023-04-18T01:57:47.352Z,9.11
2023-04-18T02:00:15.854Z,9.11
2023-04-18T02:02:43.625Z,9.13
2023-04-18T02:05:11.394Z,9.17
2023-04-18T02:07:39.755Z,9.19
2023-04-18T02:10:07.913Z,9.20
2023-04-18T02:12:35.529Z,9.19
2023-04-18T02:15:03.564Z,9.18
2023-04-18T02:17:31.342Z,9.21
2023-04-18T02:19:59.007Z,9.22
2023-04-18T02:22:26.583Z,9.20
2023-04-18T02:24:54.176Z,9.18
2023-04-18T02:27:21.812Z,9.17
2023-04-18T02:29:49.420Z,9.17
2023-04-18T02:32:17.070Z,9.18
2023-04-18T02:34:44.719Z,9.16
2023-04-18T02:37:12.323Z,9.13
2023-04-18T02:39:39.890Z,9.11
2023-04-18T02:42:07.493Z,9.11
2023-04-18T02:44:35.129Z,9.10
2023-04-18T02:47:02.742Z,9.07
2023-04-18T02:49:30.385Z,9.06
2023-04-18T02:51:58.051Z,9.08
2023-04-18T02:54:25.779Z,9.08
2023-04-18T02:56:57.006Z,9.07
2023-04-18T02:59:24.693Z,9.05
2023-04-18T03:01:52.416Z,9.04
2023-04-18T03:04:20.240Z,9.05
2023-04-18T03:06:50.041Z,9.05
2023-04-18T03:09:17.896Z,9.03
2023-04-18T03:11:45.533Z,9.02
2023-04-18T03:14:13.241Z,9.03
2023-04-18T03:16:41.082Z,9.02
2023-04-18T03:19:09.246Z,9.01
2023-04-18T03:21:36.850Z,9.00
2023-04-18T03:24:04.953Z,9.01
2023-04-18T03:26:32.507Z,9.02
2023-04-18T03:29:00.106Z,9.02
2023-04-18T03:31:27.772Z,9.01
2023-04-18T03:33:55.404Z,8.99
2023-04-18T03:36:25.447Z,8.99
2023-04-18T03:38:54.698Z,8.99
2023-04-18T03:41:22.300Z,8.97
2023-04-18T03:43:49.909Z,8.97
2023-04-18T03:46:17.558Z,8.98
2023-04-18T03:48:45.285Z,8.99
2023-04-18T03:51:14.202Z,8.97
2023-04-18T03:53:41.955Z,8.93
2023-04-18T03:56:09.589Z,8.92
2023-04-18T03:58:37.194Z,8.94
2023-04-18T04:01:06.594Z,8.96
2023-04-18T04:03:34.302Z,8.95
2023-04-18T04:06:01.995Z,8.94
2023-04-18T04:08:29.642Z,8.96
2023-04-18T04:10:57.257Z,8.99
2023-04-18T04:13:24.898Z,9.01
2023-04-18T04:15:52.549Z,9.00
2023-04-18T04:18:20.401Z,9.00
2023-04-18T04:20:48.025Z,9.01
2023-04-18T04:23:15.620Z,9.02
2023-04-18T04:25:45.538Z,9.02
2023-04-18T04:28:14.044Z,9.02
2023-04-18T04:30:41.751Z,9.05
2023-04-18T04:33:09.345Z,9.07
2023-04-18T04:35:37.057Z,9.08
2023-04-18T04:38:04.661Z,9.09
2023-04-18T04:40:32.365Z,9.09
2023-04-18T04:43:00.489Z,9.11
2023-04-18T04:45:28.145Z,9.11
2023-04-18T04:47:55.936Z,9.13
2023-04-18T04:50:23.556Z,9.16
2023-04-18T04:52:51.299Z,9.15
2023-04-18T04:55:19.091Z,9.13
2023-04-18T04:57:47.824Z,9.14
2023-04-18T05:00:20.766Z,9.15
2023-04-18T05:02:49.082Z,9.16
2023-04-18T05:05:16.784Z,9.15
2023-04-18T05:07:44.364Z,9.13
2023-04-18T05:10:11.981Z,9.13
2023-04-18T05:12:39.589Z,9.13
2023-04-18T05:15:08.014Z,9.16
2023-04-18T05:17:35.661Z,9.16
2023-04-18T05:20:04.190Z,9.18
2023-04-18T05:22:32.424Z,9.22
2023-04-18T05:25:00.127Z,9.26
2023-04-18T05:27:27.821Z,9.29
2023-04-18T05:29:55.865Z,9.31
2023-04-18T05:32:23.565Z,9.35
2023-04-18T05:34:51.243Z,9.40
2023-04-18T05:37:18.873Z,9.43
2023-04-18T05:39:46.652Z,9.48
2023-04-18T05:42:14.424Z,9.54
2023-04-18T05:44:42.108Z,9.60
2023-04-18T05:47:09.991Z,9.64
2023-04-18T05:49:37.693Z,9.69
2023-04-18T05:52:05.516Z,9.75
2023-04-18T05:54:33.224Z,9.82
2023-04-18T05:57:03.194Z,9.86
2023-04-18T05:59:32.049Z,9.89
2023-04-18T06:01:59.819Z,9.93
2023-04-18T06:04:27.797Z,9.95
2023-04-18T06:06:55.588Z,9.98
2023-04-18T06:09:23.192Z,10.02
2023-04-18T06:11:50.905Z,10.07
2023-04-18T06:14:18.612Z,10.12
2023-04-18T06:16:46.269Z,10.16
2023-04-18T06:19:13.854Z,10.24
2023-04-18T06:21:42.867Z,10.31
2023-04-18T06:24:10.549Z,10.39
2023-04-18T06:26:38.160Z,10.46
2023-04-18T06:29:05.946Z,10.55
2023-04-18T06:31:33.576Z,10.66
2023-04-18T06:34:01.168Z,10.73
2023-04-18T06:36:28.817Z,10.79
2023-04-18T06:38:56.430Z,10.84
2023-04-18T06:41:24.081Z,10.92
2023-04-18T06:44:02.768Z,10.98
2023-04-18T06:46:32.758Z,11.03
2023-04-18T06:49:00.481Z,11.11
2023-04-18T06:51:28.199Z,11.15
2023-04-18T06:53:55.899Z,11.19
2023-04-18T06:56:23.652Z,11.23
2023-04-18T06:58:52.863Z,11.29
2023-04-18T07:01:20.838Z,11.35
2023-04-18T07:03:48.758Z,11.39
2023-04-18T07:06:16.608Z,11.43
2023-04-18T07:08:44.205Z,11.47
2023-04-18T07:11:13.340Z,11.52
2023-04-18T07:13:40.994Z,11.60
2023-04-18T07:16:09.426Z,11.65
2023-04-18T07:18:38.573Z,11.67
2023-04-18T07:21:09.421Z,11.72
2023-04-18T07:23:37.274Z,11.75
2023-04-18T07:26:05.895Z,11.78
2023-04-18T07:28:33.724Z,11.82
2023-04-18T07:31:03.188Z,11.90
2023-04-18T07:33:33.963Z,11.96
2023-04-18T07:36:02.173Z,12.00
2023-04-18T07:38:29.796Z,12.07
2023-04-18T07:40:58.511Z,12.14
2023-04-18T07:43:26.340Z,12.20
2023-04-18T07:45:54.058Z,12.27
2023-04-18T07:48:22.738Z,12.32
2023-04-18T07:50:50.826Z,12.38
2023-04-18T07:53:18.491Z,12.44
2023-04-18T07:55:46.719Z,12.51
2023-04-18T07:58:14.666Z,12.62
2023-04-18T08:00:43.848Z,12.70
2023-04-18T08:03:12.872Z,12.75
2023-04-18T08:05:41.962Z,12.80
2023-04-18T08:08:10.760Z,12.85
2023-04-18T08:10:38.411Z,12.93
2023-04-18T08:13:06.312Z,13.03
2023-04-18T08:15:34.061Z,13.09
2023-04-18T08:18:01.848Z,13.09
2023-04-18T08:20:29.654Z,13.08
2023-04-18T08:23:06.838Z,13.08
2023-04-18T08:25:36.692Z,13.13
2023-04-18T08:28:04.720Z,13.19
2023-04-18T08:30:32.506Z,13.26
2023-04-18T08:33:00.923Z,13.32
2023-04-18T08:35:30.519Z,13.39
2023-04-18T08:37:58.117Z,13.49
2023-04-18T08:40:25.787Z,13.59
2023-04-18T08:42:54.108Z,13.69
2023-04-18T08:45:21.830Z,13.79
2023-04-18T08:47:49.509Z,13.87
2023-04-18T08:50:18.468Z,13.91
2023-04-18T08:52:48.847Z,13.99
2023-04-18T08:55:16.537Z,14.04
2023-04-18T08:57:44.211Z,14.05
2023-04-18T09:00:12.613Z,14.09
2023-04-18T09:02:45.015Z,14.17
2023-04-18T09:05:19.102Z,14.25
2023-04-18T09:07:47.771Z,14.32
2023-04-18T09:10:33.353Z,14.42
2023-04-18T09:13:03.530Z,14.56
2023-04-18T09:15:31.725Z,14.67
2023-04-18T09:18:02.302Z,14.73
2023-04-18T09:20:41.640Z,14.81
2023-04-18T09:23:11.328Z,14.88
2023-04-18T09:25:45.488Z,14.90
2023-04-18T09:28:30.239Z,14.92
2023-04-18T09:31:09.663Z,14.98
2023-04-18T09:33:37.763Z,15.04
2023-04-18T09:36:25.148Z,15.08
2023-04-18T09:38:56.200Z,15.12
2023-04-18T09:41:24.266Z,15.18
2023-04-18T09:44:09.716Z,15.24
2023-04-18T09:46:39.375Z,15.34
2023-04-18T09:49:09.632Z,15.42
2023-04-18T09:51:38.516Z,15.48
2023-04-18T09:54:06.179Z,15.52
2023-04-18T09:56:33.829Z,15.58
2023-04-18T09:59:08.843Z,15.69
2023-04-18T10:01:36.652Z,15.78
2023-04-18T10:04:06.747Z,15.83
2023-04-18T10:06:35.190Z,15.89
2023-04-18T10:09:03.399Z,16.01
2023-04-18T10:11:31.748Z,16.24
2023-04-18T10:14:02.708Z,16.45
2023-04-18T10:16:30.401Z,16.68
2023-04-18T10:18:58.442Z,16.92
2023-04-18T10:21:27.669Z,17.17
2023-04-18T10:23:55.503Z,17.44
2023-04-18T10:26:24.083Z,17.81
2023-04-18T10:28:58.320Z,18.01
2023-04-18T10:31:27.435Z,17.95
2023-04-18T10:36:28.652Z,17.92
2023-04-18T10:39:00.800Z,18.05
2023-04-18T10:41:32.110Z,18.23
2023-04-18T10:44:09.702Z,18.36
2023-04-18T10:46:38.875Z,18.47
2023-04-18T10:49:18.752Z,18.52
2023-04-18T10:51:47.200Z,18.58
2023-04-18T10:54:24.170Z,18.68
2023-04-18T10:56:56.648Z,18.79
2023-04-18T10:59:25.455Z,18.87
2023-04-18T11:01:58.209Z,19.02
2023-04-18T11:04:25.898Z,19.14
2023-04-18T11:06:58.382Z,19.29
2023-04-18T11:09:26.062Z,19.43
2023-04-18T11:12:07.532Z,19.58
2023-04-18T11:14:45.763Z,19.75
2023-04-18T11:17:21.949Z,19.93
2023-04-18T11:19:50.362Z,20.10
2023-04-18T11:22:18.371Z,20.21
2023-04-18T11:24:46.024Z,20.26
2023-04-18T11:27:13.988Z,20.25
2023-04-18T11:29:41.790Z,20.23
2023-04-18T11:32:09.596Z,20.25
2023-04-18T11:34:37.393Z,20.33
2023-04-18T11:37:08.513Z,20.45
2023-04-18T11:39:42.920Z,20.53
2023-04-18T11:42:10.614Z,20.65
2023-04-18T11:44:40.076Z,20.77
2023-04-18T11:47:29.086Z,20.92
2023-04-18T11:50:07.018Z,21.08
2023-04-18T11:52:35.574Z,21.19
2023-04-18T11:55:13.720Z,21.30
2023-04-18T11:57:42.014Z,21.46
2023-04-18T12:00:12.245Z,21.55
2023-04-18T12:02:44.172Z,21.60
2023-04-18T12:05:15.063Z,21.59
2023-04-18T12:07:44.967Z,21.65
2023-04-18T12:10:30.989Z,21.79
2023-04-18T12:12:59.064Z,21.94
2023-04-18T12:15:28.355Z,22.07
2023-04-18T12:18:00.693Z,22.17
2023-04-18T12:20:46.397Z,22.29
2023-04-18T12:23:33.843Z,22.47
2023-04-18T12:26:05.055Z,22.70
2023-04-18T12:28:33.499Z,22.87
2023-04-18T12:31:01.881Z,23.03
2023-04-18T12:33:30.532Z,23.15
2023-04-18T12:35:58.285Z,23.20
2023-04-18T12:38:25.958Z,23.22
2023-04-18T12:40:53.576Z,23.29
2023-04-18T12:43:21.209Z,23.42
2023-04-18T12:45:49.681Z,23.58
2023-04-18T12:48:17.405Z,23.71
2023-04-18T12:50:45.004Z,23.78
2023-04-18T12:53:12.845Z,23.79
2023-04-18T12:55:40.789Z,23.84
2023-04-18T12:58:08.540Z,23.84
2023-04-18T13:00:36.240Z,23.74
2023-04-18T13:03:04.769Z,23.60
2023-04-18T13:05:34.174Z,23.57
2023-04-18T13:10:32.697Z,23.84
2023-04-18T13:13:00.516Z,24.02
2023-04-18T13:15:28.439Z,24.17
2023-04-18T13:17:57.068Z,24.26
2023-04-18T13:20:24.814Z,24.44
2023-04-18T13:22:52.492Z,24.68
2023-04-18T13:25:20.344Z,24.63
2023-04-18T13:27:50.156Z,24.42
2023-04-18T13:30:17.927Z,24.31
2023-04-18T13:32:46.271Z,24.25
2023-04-18T13:35:14.023Z,24.12
2023-04-18T13:37:41.897Z,23.87
2023-04-18T13:40:10.129Z,23.60
2023-04-18T13:42:38.416Z,23.37
2023-04-18T13:45:07.444Z,23.36
2023-04-18T13:47:35.866Z,23.36
2023-04-18T13:50:04.089Z,23.12
2023-04-18T13:52:31.759Z,22.71
2023-04-18T13:54:59.396Z,22.30
2023-04-18T13:57:28.445Z,21.98
2023-04-18T13:59:56.084Z,21.72
2023-04-18T14:02:23.908Z,21.47
2023-04-18T14:04:52.721Z,21.25
2023-04-18T14:07:20.406Z,21.10
2023-04-18T14:09:48.242Z,20.92
2023-04-18T14:12:16.061Z,20.75
2023-04-18T14:14:43.686Z,20.63
2023-04-18T14:17:11.419Z,20.49
2023-04-18T14:19:39.177Z,20.33
2023-04-18T14:22:07.831Z,20.15
2023-04-18T14:24:36.492Z,19.96
2023-04-18T14:27:04.189Z,19.85
2023-04-18T14:29:31.784Z,19.79
2023-04-18T14:31:59.411Z,19.73
2023-04-18T14:34:27.008Z,19.70
2023-04-18T14:36:54.693Z,19.74
2023-04-18T14:39:22.393Z,19.77
2023-04-18T14:41:50.052Z,19.78
2023-04-18T14:44:17.630Z,19.82
2023-04-18T14:46:45.318Z,19.84
2023-04-18T14:49:13.119Z,19.82
2023-04-18T14:51:41.127Z,19.85
2023-04-18T14:54:08.713Z,19.90
2023-04-18T14:56:36.347Z,19.84
2023-04-18T14:59:03.987Z,19.73
2023-04-18T15:01:31.669Z,19.53
2023-04-18T15:03:59.772Z,19.30
2023-04-18T15:06:28.433Z,19.09
2023-04-18T15:08:56.712Z,18.95
2023-04-18T15:11:24.453Z,18.83
2023-04-18T15:13:52.080Z,18.72
2023-04-18T15:16:19.780Z,18.59
2023-04-18T15:18:47.494Z,18.48
2023-04-18T15:21:15.104Z,18.37
2023-04-18T15:23:42.851Z,18.27
2023-04-18T15:26:10.743Z,18.16
2023-04-18T15:28:38.349Z,18.01
2023-04-18T15:31:06.096Z,17.89
2023-04-18T15:33:33.718Z,17.75
2023-04-18T15:36:01.308Z,17.64
2023-04-18T15:38:30.492Z,17.50
2023-04-18T15:40:59.972Z,17.38
2023-04-18T15:43:27.582Z,17.29
2023-04-18T15:45:55.224Z,17.24
2023-04-18T15:48:22.854Z,17.18
2023-04-18T15:50:51.198Z,17.13
2023-04-18T15:53:18.917Z,17.06
2023-04-18T15:55:46.919Z,17.02
2023-04-18T15:58:14.651Z,16.97
2023-04-18T16:00:42.294Z,16.90
2023-04-18T16:03:10.506Z,16.82
2023-04-18T16:05:38.343Z,16.74
2023-04-18T16:08:06.332Z,16.65
2023-04-18T16:10:33.937Z,16.58
2023-04-18T16:13:02.442Z,16.46
2023-04-18T16:15:34.864Z,16.35
2023-04-18T16:18:02.578Z,16.21
2023-04-18T16:20:30.276Z,16.10
2023-04-18T16:22:57.870Z,15.95
2023-04-18T16:25:25.755Z,15.82
2023-04-18T16:27:53.759Z,15.72
2023-04-18T16:30:21.492Z,15.62
2023-04-18T16:32:49.154Z,15.51
2023-04-18T16:35:16.840Z,15.40
2023-04-18T16:37:44.477Z,15.33
2023-04-18T16:40:12.294Z,15.24
2023-04-18T16:42:41.200Z,15.18
2023-04-18T16:45:08.994Z,15.10
2023-04-18T16:47:36.712Z,15.04
2023-04-18T16:50:05.210Z,14.98
2023-04-18T16:52:32.917Z,14.90
2023-04-18T16:55:00.588Z,14.81
2023-04-18T16:57:28.221Z,14.75
2023-04-18T16:59:55.900Z,14.68
2023-04-18T17:02:24.023Z,14.63
2023-04-18T17:04:51.916Z,14.58
2023-04-18T17:07:19.582Z,14.50
2023-04-18T17:09:47.240Z,14.43
2023-04-18T17:12:15.045Z,14.35
2023-04-18T17:14:42.645Z,14.26
2023-04-18T17:17:10.579Z,14.18
2023-04-18T17:19:39.187Z,14.10
2023-04-18T17:22:07.344Z,14.05
2023-04-18T17:24:35.196Z,13.99
2023-04-18T17:27:03.046Z,13.91
2023-04-18T17:29:30.957Z,13.83
2023-04-18T17:31:58.989Z,13.78
2023-04-18T17:34:26.984Z,13.73
2023-04-18T17:36:54.925Z,13.67
2023-04-18T17:39:22.875Z,13.64
2023-04-18T17:41:50.753Z,13.61
2023-04-18T17:44:18.386Z,13.56
2023-04-18T17:46:47.377Z,13.50
2023-04-18T17:49:16.840Z,13.42
2023-04-18T17:51:44.704Z,13.34
2023-04-18T17:54:13.488Z,13.26
2023-04-18T17:56:41.376Z,13.16
2023-04-18T17:59:09.862Z,13.08
2023-04-18T18:01:37.901Z,13.03
2023-04-18T18:04:05.889Z,12.99
2023-04-18T18:06:34.679Z,12.96
2023-04-18T18:09:02.940Z,12.93
2023-04-18T18:11:30.586Z,12.90
2023-04-18T18:13:58.264Z,12.86
2023-04-18T18:16:26.294Z,12.80
2023-04-18T18:18:54.074Z,12.74
2023-04-18T18:21:21.869Z,12.69
2023-04-18T18:23:49.781Z,12.65
2023-04-18T18:26:17.427Z,12.61
2023-04-18T18:28:45.152Z,12.59
2023-04-18T18:31:13.103Z,12.58
2023-04-18T18:33:41.227Z,12.59
2023-04-18T18:36:08.839Z,12.60
2023-04-18T18:38:36.860Z,12.62
2023-04-18T18:41:05.712Z,12.62
2023-04-18T18:43:33.629Z,12.61
2023-04-18T18:46:01.272Z,12.61
2023-04-18T18:48:29.260Z,12.58
2023-04-18T18:50:58.544Z,12.56
2023-04-18T18:53:26.183Z,12.55
2023-04-18T18:55:53.812Z,12.52
2023-04-18T18:58:21.747Z,12.48
2023-04-18T19:00:51.220Z,12.44
2023-04-18T19:03:21.249Z,12.41
2023-04-18T19:05:49.368Z,12.37
2023-04-18T19:08:17.283Z,12.33
2023-04-18T19:10:44.922Z,12.30
2023-04-18T19:13:12.531Z,12.27
2023-04-18T19:15:40.212Z,12.24
2023-04-18T19:18:07.933Z,12.24
2023-04-18T19:20:35.671Z,12.26
2023-04-18T19:23:03.299Z,12.31
2023-04-18T19:25:31.288Z,12.34
2023-04-18T19:27:58.937Z,12.37
2023-04-18T19:30:26.552Z,12.38
2023-04-18T19:32:54.208Z,12.37
2023-04-18T19:35:22.094Z,12.35
2023-04-18T19:37:49.918Z,12.32
2023-04-18T19:40:17.799Z,12.28
2023-04-18T19:42:46.212Z,12.24
2023-04-18T19:45:15.210Z,12.21
2023-04-18T19:47:44.431Z,12.18
2023-04-18T19:50:12.197Z,12.16
2023-04-18T19:52:39.875Z,12.14
2023-04-18T19:55:07.965Z,12.10
2023-04-18T19:57:39.635Z,12.06
2023-04-18T20:00:09.358Z,12.03
2023-04-18T20:02:37.329Z,12.02
2023-04-18T20:05:06.347Z,12.04
2023-04-18T20:07:34.811Z,12.07
2023-04-18T20:10:02.471Z,12.11
2023-04-18T20:12:30.161Z,12.11
2023-04-18T20:14:58.981Z,12.10
2023-04-18T20:17:27.734Z,12.07
2023-04-18T20:19:57.333Z,12.06
2023-04-18T20:22:26.726Z,12.04
2023-04-18T20:24:57.272Z,12.02
2023-04-18T20:27:25.006Z,11.99
2023-04-18T20:29:52.657Z,11.96
2023-04-18T20:32:20.675Z,11.94
2023-04-18T20:34:48.531Z,11.92
2023-04-18T20:37:19.830Z,11.89
2023-04-18T20:39:47.713Z,11.87
2023-04-18T20:42:15.857Z,11.86
2023-04-18T20:44:44.793Z,11.89
2023-04-18T20:47:15.148Z,11.92
2023-04-18T20:49:43.279Z,11.94
2023-04-18T20:52:10.925Z,11.96
2023-04-18T20:54:38.575Z,11.96
2023-04-18T20:57:06.301Z,11.96
2023-04-18T20:59:33.903Z,11.94
2023-04-18T21:02:01.714Z,11.92
2023-04-18T21:04:29.610Z,11.90
2023-04-18T21:06:57.932Z,11.87
2023-04-18T21:09:25.707Z,11.85
2023-04-18T21:11:53.323Z,11.82
2023-04-18T21:14:20.971Z,11.79
2023-04-18T21:16:48.560Z,11.78
2023-04-18T21:19:16.415Z,11.81
2023-04-18T21:21:44.138Z,11.85
2023-04-18T21:24:11.852Z,11.88
2023-04-18T21:26:39.494Z,11.90
2023-04-18T21:29:07.590Z,11.89
2023-04-18T21:31:35.511Z,11.88
2023-04-18T21:34:04.627Z,11.85
2023-04-18T21:36:32.682Z,11.82
2023-04-18T21:39:00.979Z,11.78
2023-04-18T21:41:28.721Z,11.74
2023-04-18T21:43:56.398Z,11.68
2023-04-18T21:46:24.226Z,11.64
2023-04-18T21:48:52.041Z,11.64
2023-04-18T21:51:19.661Z,11.66
2023-04-18T21:53:47.338Z,11.68
2023-04-18T21:56:14.987Z,11.68
2023-04-18T21:58:42.625Z,11.66
2023-04-18T22:01:10.339Z,11.64
2023-04-18T22:03:38.178Z,11.61
2023-04-18T22:06:06.227Z,11.57
2023-04-18T22:08:33.889Z,11.53
2023-04-18T22:11:01.670Z,11.50
2023-04-18T22:13:35.683Z,11.48
2023-04-18T22:16:03.759Z,11.47
2023-04-18T22:18:34.576Z,11.46
2023-04-18T22:21:03.430Z,11.44
2023-04-18T22:23:31.295Z,11.43
2023-04-18T22:25:58.947Z,11.40
2023-04-18T22:28:28.179Z,11.38
2023-04-18T22:30:56.066Z,11.33
2023-04-18T22:33:24.381Z,11.29
2023-04-18T22:35:52.336Z,11.26
2023-04-18T22:38:19.948Z,11.25
2023-04-18T22:40:47.744Z,11.22
2023-04-18T22:43:15.350Z,11.19
2023-04-18T22:45:42.981Z,11.13
2023-04-18T22:48:13.282Z,11.09
2023-04-18T22:50:42.930Z,11.03
2023-04-18T22:53:11.150Z,10.98
2023-04-18T22:55:40.482Z,10.95
2023-04-18T22:58:08.796Z,10.95
2023-04-18T23:00:37.009Z,10.96
2023-04-18T23:03:04.864Z,10.97
2023-04-18T23:05:33.373Z,10.96
2023-04-18T23:08:01.050Z,10.93
2023-04-18T23:10:28.730Z,10.89
2023-04-18T23:12:56.727Z,10.84
2023-04-18T23:15:25.352Z,10.81
2023-04-18T23:17:53.391Z,10.78
2023-04-18T23:20:21.424Z,10.80
2023-04-18T23:22:51.572Z,10.80
2023-04-18T23:25:20.064Z,10.81
2023-04-18T23:27:48.023Z,10.81
2023-04-18T23:30:16.071Z,10.77
2023-04-18T23:32:44.048Z,10.72
2023-04-18T23:35:11.907Z,10.68
2023-04-18T23:37:39.577Z,10.66
2023-04-18T23:40:08.206Z,10.65
2023-04-18T23:42:35.984Z,10.64
2023-04-18T23:45:04.102Z,10.66
2023-04-18T23:47:31.734Z,10.66
2023-04-18T23:49:59.656Z,10.65
2023-04-18T23:52:27.280Z,10.62
2023-04-18T23:54:55.554Z,10.59
2023-04-18T23:57:23.180Z,10.57
2023-04-18T23:59:50.793Z,10.56
